Selfridge Angb Airport
KMTC : now visible

Airfield :











YOU CAN JOIN US ON...

 
LOGIN :

Register | Disclaimer

   EN    FR    IT 

 









Legend :    VFR   Marginal VFR   IFR   Intensive IFR   Very Intensive IFR
Visi :
Ceiling :
>= 8 km
>= 3000ft
5 to 8 km
1000 to 3000 ft
1500m to 5 km
500 to 1000 ft
800 to 1500m
200 to 500 ft
< 800m
< 200 ft
Symbols :   Thunderstorms  Fog  Heavy snow  Heavy precipitations  Wind > 20 kt






- Airport Elevation : 580 ft


KMTC - Selfridge Angb

CURRENT METAR :
  • 170356Z 28006KT 12SM CLR M00/M06 A3013 RMK AO2A SLP214 T10051061

EXPIRED METARs :
  • 170256Z 26006KT 12SM CLR 00/M05 A3010 RMK AO2A SLP204 T00021054 52014
  • 170155Z 25006KT 12SM CLR 01/M06 A3009 RMK AO2A SLP200 T00081057

TAF TAF KMTC
Valid from the 17 at 01:00 until the 18 at 07:00 UTC


170100Z 1701/1807 VRB06KT 9999 FEW013 510063 QNH3007INS
BECMG 1720/1721 12010G15KT 9999 FEW090 QNH2999INS
BECMG 1805/1806 13009KT 9999 SCT011 QNH2989INS TX04/1720Z TNM05/1712Z LAST NO AMDS AFT 1703 NEXT 1809



MET'MAP, your aeronautical weather chart ! - Copyright ORBIFLY December 2007 - Disclaimer

ORBIFLY MET'MAP TEAM :

Programming & Development : Alexandra Zaïnal
Concept & original design : Baudouin d'Aumeries
Assistance for programming : Marc-Olivier Méhu
Technical & hardware support : Manuel Goepfert

Contact : metmap@orbifly.com




SOURCES & CREDITS :

   NOAA       Earth
Advisory